CDT,Max TemperatureF,Mean TemperatureF,Min TemperatureF,Max Dew PointF,MeanDew PointF,Min DewpointF,Max Humidity, Mean Humidity, Min Humidity, Max Sea Level PressureIn, Mean Sea Level PressureIn, Min Sea Level PressureIn, Max VisibilityMiles, Mean VisibilityMiles, Min VisibilityMiles, Max Wind SpeedMPH, Mean Wind SpeedMPH, Max Gust SpeedMPH,PrecipitationIn, CloudCover, Events, WindDirDegrees
2010-10-1,79,65,50,45,38,29,68,43,18,30.06,30.01,29.93,10,10,10,18,8,24,0.00,0,,7
2010-10-2,78,61,43,49,42,37,86,56,25,30.13,30.04,29.97,10,10,10,25,7,31,0.00,2,,341
2010-10-3,63,52,40,43,39,34,89,63,36,30.28,30.23,30.13,10,10,10,18,9,26,0.00,3,,2
2010-10-4,66,51,36,37,34,32,85,58,30,30.35,30.31,30.27,10,10,10,18,6,24,0.00,0,,3
2010-10-5,71,54,37,39,33,27,85,53,20,30.40,30.33,30.27,10,10,10,15,5,20,0.00,0,,330
2010-10-6,76,56,36,41,35,31,85,52,19,30.29,30.21,30.11,10,10,10,15,4,21,0.00,0,,305
2010-10-7,84,65,45,51,47,41,86,58,29,30.14,30.09,30.05,10,10,5,17,3,21,0.00,0,,298
2010-10-8,86,66,45,49,46,41,93,58,22,30.15,30.09,30.04,10,9,2,9,1,13,0.00,0,,272
2010-10-9,87,67,46,50,44,36,93,55,16,30.11,30.05,30.00,10,8,2,8,1,10,0.00,0,,180
2010-10-10,89,68,47,49,45,38,93,55,17,30.04,29.97,29.89,10,10,7,7,1,10,0.00,0,,275
2010-10-11,88,68,48,57,49,42,93,57,21,29.94,29.88,29.82,10,10,7,23,3,29,0.02,3,Rain-Thunderstorm,187
2010-10-12,79,68,57,57,55,53,93,68,42,29.97,29.91,29.87,10,9,6,14,4,20,T,4,Thunderstorm,150
2010-10-13,77,65,53,57,54,51,93,68,43,30.09,30.02,29.96,10,8,5,17,5,24,T,3,Rain,345
2010-10-14,71,59,47,51,37,25,93,56,18,30.19,30.10,29.99,10,9,6,17,7,22,0.00,0,,305
2010-10-15,73,57,41,40,33,26,65,42,19,30.14,30.03,29.92,10,10,10,21,8,26,0.00,0,,307
2010-10-16,75,56,36,38,35,30,85,53,20,30.24,30.16,30.11,10,10,10,8,1,20,0.00,0,,169
2010-10-17,84,62,39,44,39,36,92,57,22,30.17,30.08,30.00,10,10,7,13,3,15,0.00,0,,236
2010-10-18,83,67,51,47,42,38,83,52,20,30.02,29.93,29.85,10,10,4,13,3,20,0.00,0,,223
2010-10-19,67,58,49,43,41,32,74,57,39,29.99,29.94,29.87,10,10,10,12,4,14,0.00,4,,358
2010-10-20,73,57,40,39,34,27,82,51,20,30.01,29.96,29.91,10,10,10,13,4,17,0.00,1,,255
2010-10-21,76,60,43,41,32,22,63,38,13,30.08,29.98,29.91,10,10,3,20,7,23,0.00,0,,287
2010-10-22,76,55,34,35,31,25,82,49,16,30.22,30.15,30.08,10,9,5,8,3,13,0.00,0,,130
2010-10-23,80,63,46,39,35,30,65,41,17,30.18,30.12,30.05,10,10,10,20,7,24,0.00,0,,158
2010-10-24,80,71,61,63,56,41,87,65,42,30.06,29.95,29.80,10,7,1,23,9,30,0.84,5,Rain-Thunderstorm,193
2010-10-25,74,67,60,62,60,57,97,81,64,29.80,29.73,29.55,10,10,2,21,9,28,0.14,6,Rain-Thunderstorm,183
2010-10-26,78,65,51,65,56,49,89,75,60,29.81,29.60,29.46,10,7,1,35,12,47,0.79,7,Rain-Thunderstorm,236
2010-10-27,79,63,47,55,46,36,96,61,25,30.04,29.91,29.83,10,8,1,16,6,22,0.00,1,,217
2010-10-28,63,51,39,36,34,31,73,53,33,30.37,30.21,30.05,10,10,10,20,9,24,0.00,2,,313
2010-10-29,59,46,33,35,31,26,89,60,30,30.42,30.34,30.24,10,10,7,10,2,14,0.00,0,,333
2010-10-30,69,49,29,35,30,26,100,60,20,30.23,30.10,29.98,10,8,2,16,6,37,0.00,0,,203
2010-10-31,72,56,39,40,37,33,86,57,27,30.14,30.04,29.99,10,10,10,9,3,14,0.00,0,,20